Time;durP1;ratioP1;P1;durP2;ratioP2;P2;SDS_P1;SDS_P2;PMS_P1;PMS_P2;Temp;Humidity;BMP_temperature;BMP_pressure;BME280_temperature;BME280_humidity;BME280_pressure;Samples;Min_cycle;Max_cycle;Signal;HPM_P1;HPM_P2
2023/12/20 00:03:41;;;;;;;19.08;9.38;;;;;;;5.25;82.52;102139.03;10377079;28;96572;-86
2023/12/20 00:08:48;;;;;;;17.45;9.18;;;;;;;5.22;83.96;102141.63;10374635;28;97748;-86
2023/12/20 00:13:56;;;;;;;18.02;9.35;;;;;;;5.23;83.41;102132.91;10374903;28;96576;-87
2023/12/20 00:25:03;;;;;;;19.90;9.80;;;;;;;5.22;84.33;102116.41;10404531;28;96899;-89
2023/12/20 00:30:26;;;;;;;23.80;11.70;;;;;;;5.25;84.60;102115.53;10417149;28;97106;-89
2023/12/20 01:00:47;;;;;;;21.10;10.27;;;;;;;5.15;85.28;102082.38;10037802;28;97149;-90
2023/12/20 01:06:31;;;;;;;21.63;9.88;;;;;;;5.18;85.51;102077.19;10240152;28;96705;-91
2023/12/20 01:12:58;;;;;;;;;;;;;;;;;;;;;
2023/12/20 01:19:14;;;;;;;;;;;;;;;;;;;;;
2023/12/20 01:48:04;;;;;;;12.45;6.78;;;;;;;5.44;85.78;102078.34;10339886;28;97341;-88
2023/12/20 01:53:27;;;;;;;11.48;5.95;;;;;;;5.50;85.33;102081.03;10372574;28;96690;-88
2023/12/20 01:58:50;;;;;;;15.02;6.85;;;;;;;5.55;85.99;102074.13;10372725;28;96804;-87
2023/12/20 02:03:58;;;;;;;12.27;7.55;;;;;;;5.55;85.01;102066.28;10369713;28;96728;-88
2023/12/20 02:09:32;;;;;;;13.88;7.80;;;;;;;5.47;85.34;102068.81;10370919;28;97341;-89
2023/12/20 02:15:01;;;;;;;13.90;7.45;;;;;;;5.37;86.69;102066.09;10354499;28;96986;-88
2023/12/20 02:20:28;;;;;;;13.15;7.53;;;;;;;5.30;86.58;102056.44;10403638;28;96777;-88
2023/12/20 02:25:42;;;;;;;15.40;7.70;;;;;;;5.30;86.50;102049.50;10413105;28;96743;-89
2023/12/20 02:31:08;;;;;;;14.90;8.73;;;;;;;5.26;86.85;102039.88;10413341;28;97259;-86
2023/12/20 02:36:32;;;;;;;15.27;8.77;;;;;;;5.24;87.00;102057.25;10410971;28;96734;-87
2023/12/20 02:41:41;;;;;;;14.18;7.53;;;;;;;5.24;87.81;102053.78;10330430;28;96805;-89
2023/12/20 02:46:52;;;;;;;14.65;7.40;;;;;;;5.31;88.32;102058.22;10347866;28;96716;-88
2023/12/20 02:51:59;;;;;;;16.48;8.30;;;;;;;5.35;87.10;102067.81;10371519;28;96548;-88
2023/12/20 02:57:08;;;;;;;17.88;8.38;;;;;;;5.34;87.18;102072.16;10369738;28;97213;-88
2023/12/20 03:02:15;;;;;;;14.02;8.05;;;;;;;5.50;86.88;102083.66;10370548;28;97309;-88
2023/12/20 03:07:20;;;;;;;14.07;8.00;;;;;;;5.54;86.56;102080.19;10370076;28;97196;-86
2023/12/20 03:12:27;;;;;;;14.13;8.30;;;;;;;5.69;86.54;102067.28;10329017;28;97088;-87
2023/12/20 03:17:31;;;;;;;12.48;7.45;;;;;;;5.70;86.36;102071.63;10329020;28;97206;-87
2023/12/20 03:22:36;;;;;;;15.38;8.25;;;;;;;5.73;85.89;102066.44;10328635;28;96702;-86
2023/12/20 03:27:46;;;;;;;15.48;8.13;;;;;;;5.71;85.87;102073.38;10357803;28;96699;-87
2023/12/20 03:32:51;;;;;;;13.55;7.43;;;;;;;5.74;85.57;102068.22;10370633;28;97195;-86
2023/12/20 03:37:56;;;;;;;14.40;7.53;;;;;;;5.72;86.48;102049.03;10369806;28;96888;-86
2023/12/20 03:43:03;;;;;;;17.35;9.38;;;;;;;5.70;85.95;102035.06;10369668;28;97154;-87
2023/12/20 03:48:11;;;;;;;14.45;7.93;;;;;;;5.69;85.68;102036.81;10372278;28;96626;-86
2023/12/20 03:53:17;;;;;;;16.65;8.02;;;;;;;5.71;85.63;102034.19;10376561;28;96686;-86
2023/12/20 03:58:24;;;;;;;18.65;8.68;;;;;;;5.68;85.91;102022.00;10376744;28;97403;-86
2023/12/20 04:03:30;;;;;;;16.77;8.77;;;;;;;5.63;86.43;102005.44;10375916;28;96569;-86
2023/12/20 04:08:35;;;;;;;18.92;9.07;;;;;;;5.60;86.75;101997.59;10376115;28;96799;-89
2023/12/20 04:13:49;;;;;;;15.68;9.02;;;;;;;5.52;87.72;102009.69;10376738;28;96664;-88
2023/12/20 04:18:58;;;;;;;20.25;9.25;;;;;;;5.56;87.34;102014.06;10406037;28;98216;-91
2023/12/20 04:24:25;;;;;;;21.52;9.55;;;;;;;5.66;86.87;102043.75;10416959;28;96726;-91
2023/12/20 04:29:34;;;;;;;15.80;9.45;;;;;;;5.71;87.23;102044.66;10417146;28;96791;-89
2023/12/20 04:35:05;;;;;;;19.02;9.18;;;;;;;5.81;86.34;102027.34;10394960;28;96652;-88
2023/12/20 04:40:13;;;;;;;16.60;7.88;;;;;;;5.92;85.98;102025.69;10373663;28;96618;-88
2023/12/20 04:45:31;;;;;;;22.00;9.60;;;;;;;5.96;86.13;102022.22;10375054;28;97107;-88
2023/12/20 04:50:38;;;;;;;16.30;8.43;;;;;;;5.95;85.06;102000.47;10374965;28;97837;-88
2023/12/20 04:55:44;;;;;;;16.73;8.57;;;;;;;6.06;85.46;102001.38;10374754;28;97370;-88
2023/12/20 05:00:52;;;;;;;17.80;9.25;;;;;;;5.95;85.97;102010.03;10373480;28;96708;-88
2023/12/20 05:05:58;;;;;;;18.95;8.82;;;;;;;5.97;85.57;102024.84;10373819;28;97096;-87
2023/12/20 05:11:02;;;;;;;16.98;9.02;;;;;;;5.92;84.98;102026.53;10372851;28;97336;-87
2023/12/20 05:16:11;;;;;;;16.97;9.10;;;;;;;5.95;85.91;102029.19;10374700;28;97456;-87
2023/12/20 05:21:17;;;;;;;15.27;8.40;;;;;;;5.99;86.09;102019.63;10372957;28;97245;-87
2023/12/20 05:26:22;;;;;;;14.50;8.23;;;;;;;6.08;85.87;102010.13;10399317;28;96878;-87
2023/12/20 05:31:33;;;;;;;18.10;8.73;;;;;;;6.07;85.78;102005.78;10401061;28;97218;-87
2023/12/20 05:36:38;;;;;;;18.50;8.57;;;;;;;6.03;86.34;102014.44;10373185;28;97378;-87
2023/12/20 05:41:45;;;;;;;20.00;9.85;;;;;;;5.92;87.10;102023.94;10373105;28;96687;-88
2023/12/20 05:46:56;;;;;;;16.10;8.80;;;;;;;5.85;87.75;102003.84;10372063;28;96723;-88
2023/12/20 05:52:01;;;;;;;21.48;9.15;;;;;;;5.88;87.59;102009.13;10372604;28;96657;-88
2023/12/20 05:57:06;;;;;;;17.13;8.60;;;;;;;5.85;89.12;102035.19;10372216;28;96746;-88
2023/12/20 06:02:16;;;;;;;18.60;9.23;;;;;;;5.89;88.83;102030.88;10372889;28;96687;-88
2023/12/20 06:07:21;;;;;;;19.33;8.75;;;;;;;5.93;87.43;102030.03;10372098;28;97061;-87
2023/12/20 06:12:26;;;;;;;;;;;;;;;5.83;89.13;102059.56;10373244;28;96851;-85
2023/12/20 06:17:42;;;;;;;17.17;8.73;;;;;;;5.92;89.50;102068.34;10372252;28;96635;-87
2023/12/20 06:22:48;;;;;;;21.25;9.88;;;;;;;5.87;89.77;102092.66;10371336;28;97024;-87
2023/12/20 06:27:55;;;;;;;21.88;9.80;;;;;;;5.86;89.69;102094.44;10371646;28;97339;-88
2023/12/20 06:33:06;;;;;;;18.23;10.07;;;;;;;6.04;88.95;102085.88;10372255;28;96857;-87
2023/12/20 06:38:11;;;;;;;21.98;10.45;;;;;;;6.09;88.26;102082.41;10339785;22;97147;-87
2023/12/20 06:43:20;;;;;;;17.65;9.52;;;;;;;6.03;88.40;102091.94;10329981;28;97144;-88
2023/12/20 06:48:50;;;;;;;21.27;9.93;;;;;;;5.99;88.52;102103.22;10329426;28;96796;-87
2023/12/20 06:53:55;;;;;;;20.45;10.20;;;;;;;6.05;89.32;102114.63;10329908;28;96764;-87
2023/12/20 06:59:00;;;;;;;23.08;10.63;;;;;;;5.92;89.18;102112.75;10330304;28;96598;-86
2023/12/20 07:04:08;;;;;;;21.13;10.75;;;;;;;5.82;89.80;102128.31;10329142;28;96608;-86
2023/12/20 07:09:15;;;;;;;22.23;11.43;;;;;;;5.81;90.68;102116.16;10329329;28;96890;-85
2023/12/20 07:14:22;;;;;;;27.30;12.40;;;;;;;5.82;90.60;102120.50;10327970;28;96764;-85
2023/12/20 07:19:28;;;;;;;21.13;10.47;;;;;;;5.80;90.22;102144.00;10329351;28;97028;-86
2023/12/20 07:24:36;;;;;;;23.85;11.60;;;;;;;5.77;90.40;102150.91;10334605;28;97439;-85
2023/12/20 07:29:40;;;;;;;25.55;10.68;;;;;;;5.77;91.00;102166.59;10335648;28;96554;-86
2023/12/20 07:34:47;;;;;;;22.20;10.60;;;;;;;5.80;90.70;102179.72;10335542;28;96847;-85
2023/12/20 07:39:57;;;;;;;23.52;11.20;;;;;;;5.85;91.04;102196.31;10335883;28;96998;-85
2023/12/20 07:45:03;;;;;;;24.90;11.27;;;;;;;5.96;90.09;102211.22;10335703;28;97381;-87
2023/12/20 07:50:10;;;;;;;22.23;10.85;;;;;;;5.97;89.80;102212.97;10336350;28;97432;-87
2023/12/20 07:55:16;;;;;;;22.67;11.25;;;;;;;6.11;89.56;102205.28;10335563;28;96635;-86
2023/12/20 08:00:25;;;;;;;25.50;10.45;;;;;;;6.06;89.58;102199.09;10335035;28;96639;-86
2023/12/20 08:05:35;;;;;;;26.52;12.02;;;;;;;6.04;90.20;102204.31;10333551;28;97311;-87
2023/12/20 08:10:40;;;;;;;24.27;11.18;;;;;;;6.08;89.62;102218.28;10334433;28;96888;-87
2023/12/20 08:15:46;;;;;;;29.63;11.88;;;;;;;6.06;89.53;102202.59;10334195;28;96764;-86
2023/12/20 08:20:53;;;;;;;27.05;11.50;;;;;;;6.08;89.65;102198.28;10334578;28;96629;-86
2023/12/20 08:25:59;;;;;;;26.58;10.45;;;;;;;6.07;90.82;102203.47;10334504;28;97507;-85
2023/12/20 08:31:04;;;;;;;26.03;11.47;;;;;;;5.98;91.37;102214.72;10333723;28;96716;-86
2023/12/20 08:36:14;;;;;;;24.27;11.38;;;;;;;5.89;91.90;102225.06;10331462;28;96827;-86
2023/12/20 08:41:20;;;;;;;26.52;11.98;;;;;;;5.96;91.98;102250.41;10335036;28;96735;-84
2023/12/20 08:46:27;;;;;;;24.17;11.57;;;;;;;6.03;91.91;102239.16;10333579;28;98205;-86
2023/12/20 08:51:41;;;;;;;26.92;11.60;;;;;;;6.17;91.26;102244.53;10333418;28;96620;-86
2023/12/20 08:56:48;;;;;;;25.73;11.38;;;;;;;6.23;90.87;102242.00;10332558;28;97121;-86
2023/12/20 09:01:54;;;;;;;26.48;10.88;;;;;;;6.23;91.59;102247.22;10333517;28;97419;-86
2023/12/20 09:07:03;;;;;;;25.50;11.85;;;;;;;6.27;91.80;102270.78;10333081;28;96731;-85
2023/12/20 09:12:09;;;;;;;26.00;11.23;;;;;;;6.26;92.03;102282.09;10333180;28;96741;-85
2023/12/20 09:17:16;;;;;;;32.53;13.43;;;;;;;6.34;91.29;102290.88;10332301;28;96751;-86
2023/12/20 09:22:23;;;;;;;32.90;12.80;;;;;;;6.45;91.11;102296.22;10331947;28;96652;-86
2023/12/20 09:27:28;;;;;;;30.85;12.05;;;;;;;6.47;90.52;102297.97;10332359;28;97166;-86
2023/12/20 09:32:33;;;;;;;28.40;12.43;;;;;;;6.64;90.52;102298.16;10333054;28;96512;-85
2023/12/20 09:37:44;;;;;;;34.28;12.35;;;;;;;6.73;90.37;102306.94;10331693;28;97093;-86
2023/12/20 09:42:58;;;;;;;34.40;14.02;;;;;;;6.81;90.51;102307.00;10331470;28;96669;-86
2023/12/20 09:48:06;;;;;;;38.63;16.98;;;;;;;6.82;91.43;102300.91;10329833;28;96708;-85
2023/12/20 09:53:16;;;;;;;46.85;19.85;;;;;;;6.88;90.97;102308.84;10332062;28;96965;-85
2023/12/20 09:58:20;;;;;;;45.30;19.17;;;;;;;6.97;90.67;102313.28;10331043;28;96581;-85
2023/12/20 10:03:33;;;;;;;28.00;14.07;;;;;;;7.03;90.70;102318.53;10331010;28;96591;-86
2023/12/20 10:08:40;;;;;;;31.30;14.68;;;;;;;7.11;90.17;102311.66;10331070;28;97099;-85
2023/12/20 10:13:45;;;;;;;31.50;13.52;;;;;;;7.17;89.94;102316.91;10330974;28;97513;-85
2023/12/20 10:18:50;;;;;;;30.67;13.73;;;;;;;7.24;89.66;102321.31;10330494;28;97095;-85
2023/12/20 10:23:59;;;;;;;;;;;;;;;7.33;89.58;102330.13;10331685;28;96592;-85
2023/12/20 10:29:07;;;;;;;30.40;11.93;;;;;;;7.34;90.02;102321.41;10330535;28;96694;-85
2023/12/20 10:34:12;;;;;;;30.00;14.73;;;;;;;7.38;90.02;102322.28;10329925;28;96713;-84
2023/12/20 10:39:20;;;;;;;;;;;;;;;7.41;89.66;102322.31;10329463;28;96621;-83
2023/12/20 10:44:25;;;;;;;27.60;12.38;;;;;;;7.36;90.27;102326.66;10330017;28;96664;-84
2023/12/20 10:49:31;;;;;;;23.90;10.45;;;;;;;7.36;90.73;102331.88;10329582;28;96818;-84
2023/12/20 10:54:43;;;;;;;19.55;10.10;;;;;;;7.27;90.39;102339.69;10329156;28;96727;-84
2023/12/20 10:59:56;;;;;;;17.48;8.10;;;;;;;7.28;90.41;102337.09;10329247;28;96686;-84
2023/12/20 11:05:09;;;;;;;17.75;7.68;;;;;;;7.20;90.82;102330.91;10328942;28;96767;-84
2023/12/20 11:10:23;;;;;;;15.25;6.50;;;;;;;7.18;91.14;102334.38;10329213;28;97082;-84
2023/12/20 11:15:29;;;;;;;15.32;7.57;;;;;;;7.22;91.80;102342.25;10329683;28;97331;-83
2023/12/20 11:20:38;;;;;;;20.65;8.57;;;;;;;7.36;91.79;102322.28;10328949;28;96641;-83
2023/12/20 11:25:55;;;;;;;20.52;10.32;;;;;;;7.63;90.34;102300.63;10328384;28;96636;-84
2023/12/20 11:31:04;;;;;;;24.23;10.48;;;;;;;7.61;90.26;102297.13;10327511;28;96722;-84
2023/12/20 11:36:21;;;;;;;27.05;11.52;;;;;;;7.61;90.18;102291.88;10328280;28;96788;-83
2023/12/20 11:41:29;;;;;;;34.65;15.73;;;;;;;7.60;90.53;102274.38;10328320;28;96717;-83
2023/12/20 11:46:37;;;;;;;28.35;12.70;;;;;;;7.67;90.56;102258.72;10328487;28;96609;-83
2023/12/20 11:51:44;;;;;;;19.90;10.38;;;;;;;7.68;90.27;102257.84;10328318;28;96873;-83
2023/12/20 11:56:52;;;;;;;21.98;9.88;;;;;;;7.65;90.68;102251.69;10328284;28;97004;-83
2023/12/20 12:02:00;;;;;;;20.50;9.70;;;;;;;7.79;90.03;102239.53;10327788;28;96976;-83
2023/12/20 12:07:05;;;;;;;21.23;10.23;;;;;;;8.01;89.67;102243.09;10329688;28;96554;-83
2023/12/20 12:12:13;;;;;;;19.00;9.48;;;;;;;8.13;89.49;102246.63;10334440;28;96783;-84
2023/12/20 12:17:18;;;;;;;19.02;9.75;;;;;;;8.28;88.53;102237.91;10334156;28;96723;-84
2023/12/20 12:22:26;;;;;;;18.95;9.55;;;;;;;8.40;88.48;102233.56;10333381;28;97231;-84
2023/12/20 12:27:35;;;;;;;20.20;10.07;;;;;;;8.55;88.10;102219.56;10334315;28;96657;-84
2023/12/20 12:32:41;;;;;;;26.15;11.27;;;;;;;8.83;87.94;102211.66;10333880;28;96671;-84
2023/12/20 12:37:47;;;;;;;27.77;13.15;;;;;;;8.93;86.74;102212.53;10333739;28;96673;-84
2023/12/20 12:42:54;;;;;;;21.95;11.98;;;;;;;8.92;87.08;102208.16;10333431;28;96577;-84
2023/12/20 12:47:59;;;;;;;29.48;13.35;;;;;;;8.98;86.74;102198.50;10333687;28;96729;-84
2023/12/20 12:53:04;;;;;;;44.23;18.57;;;;;;;8.93;87.21;102194.16;10333214;28;97282;-84
2023/12/20 12:58:11;;;;;;;40.78;19.10;;;;;;;8.98;87.01;102195.88;10333740;28;96673;-83
2023/12/20 13:03:18;;;;;;;34.95;16.13;;;;;;;8.78;87.67;102183.66;10332193;28;97344;-83
2023/12/20 13:08:31;;;;;;;27.15;13.13;;;;;;;8.81;88.22;102171.41;10333031;28;97513;-83
2023/12/20 13:13:37;;;;;;;25.30;12.57;;;;;;;8.81;87.31;102162.66;10331809;28;96729;-83
2023/12/20 13:18:43;;;;;;;23.88;12.10;;;;;;;8.87;87.57;102145.16;10331021;28;96794;-83
2023/12/20 13:23:48;;;;;;;23.45;11.18;;;;;;;8.98;87.18;102138.13;10332323;28;96969;-83
2023/12/20 13:28:56;;;;;;;25.35;12.35;;;;;;;9.93;85.70;102142.94;10332149;28;97612;-83
2023/12/20 13:34:00;;;;;;;25.00;12.05;;;;;;;9.73;84.12;102125.53;10332154;28;96849;-83
2023/12/20 13:39:05;;;;;;;22.95;12.00;;;;;;;9.52;85.60;102107.28;10331429;28;97095;-84
2023/12/20 13:44:16;;;;;;;23.80;11.07;;;;;;;9.32;86.08;102090.75;10332082;28;97166;-83
2023/12/20 13:49:29;;;;;;;24.00;11.90;;;;;;;9.12;85.84;102096.06;10332011;28;96814;-83
2023/12/20 13:54:33;;;;;;;26.63;12.82;;;;;;;8.95;86.50;102082.13;10331720;28;97411;-84
2023/12/20 13:59:42;;;;;;;27.70;12.77;;;;;;;8.97;86.41;102086.50;10331430;28;97372;-83
2023/12/20 14:04:46;;;;;;;29.10;13.50;;;;;;;8.95;87.67;102087.38;10330013;28;97265;-84
2023/12/20 14:09:52;;;;;;;33.80;16.67;;;;;;;9.03;86.89;102075.09;10331504;28;97188;-83
2023/12/20 14:14:59;;;;;;;30.23;14.52;;;;;;;8.98;87.71;102088.22;10330473;28;96618;-83
2023/12/20 14:20:06;;;;;;;33.83;15.88;;;;;;;9.10;87.17;102076.81;10330709;28;97523;-84
2023/12/20 14:25:15;;;;;;;46.90;21.88;;;;;;;9.21;86.99;102075.00;10330334;28;96660;-84
2023/12/20 14:30:24;;;;;;;53.97;25.27;;;;;;;9.30;88.04;102061.84;10329476;28;96655;-84
2023/12/20 14:35:28;;;;;;;51.78;23.17;;;;;;;9.33;87.30;102046.06;10330101;28;97484;-84
2023/12/20 14:40:31;;;;;;;58.95;27.83;;;;;;;9.15;87.41;102049.63;10330693;28;96710;-83
2023/12/20 14:45:39;;;;;;;51.33;24.83;;;;;;;9.62;87.57;102041.50;10329377;28;96633;-83
2023/12/20 14:50:43;;;;;;;45.10;21.63;;;;;;;10.95;83.53;102037.53;10329785;28;96733;-83
2023/12/20 14:55:48;;;;;;;51.30;25.30;;;;;;;11.64;81.49;102033.03;10328606;28;96598;-84
2023/12/20 15:00:55;;;;;;;59.80;28.03;;;;;;;12.10;79.79;102037.53;10329484;28;96961;-84
2023/12/20 15:05:59;;;;;;;39.53;21.45;;;;;;;12.17;78.30;102033.88;10329181;28;97016;-83
2023/12/20 15:11:03;;;;;;;62.05;30.70;;;;;;;12.04;77.20;102037.66;10329155;28;96703;-83
2023/12/20 15:16:09;;;;;;;77.50;41.33;;;;;;;12.32;76.93;102036.22;10328543;28;96828;-84
2023/12/20 15:21:14;;;;;;;59.25;32.88;;;;;;;12.65;77.25;102041.81;10328526;28;96702;-83
2023/12/20 15:26:17;;;;;;;56.55;31.00;;;;;;;12.54;76.84;102039.34;10328771;28;96740;-84
2023/12/20 15:31:26;;;;;;;42.92;23.92;;;;;;;12.66;75.59;102044.44;10329592;28;96732;-84
2023/12/20 15:36:31;;;;;;;34.40;18.10;;;;;;;12.58;75.46;102036.59;10327817;28;97115;-84
2023/12/20 15:41:34;;;;;;;;;;;;;;;12.11;75.79;102028.72;10329234;28;96775;-83
2023/12/20 15:46:39;;;;;;;44.83;22.27;;;;;;;11.82;76.76;102027.47;10334181;28;97126;-83
2023/12/20 15:51:43;;;;;;;41.45;21.08;;;;;;;11.40;77.18;102026.38;10335259;28;97142;-84
2023/12/20 15:56:47;;;;;;;31.08;16.70;;;;;;;11.35;77.87;102036.13;10334898;28;97201;-84
2023/12/20 16:01:54;;;;;;;34.92;17.27;;;;;;;11.21;78.26;102031.06;10335039;28;96956;-84
2023/12/20 16:06:59;;;;;;;35.85;17.25;;;;;;;10.92;79.01;102033.16;10334342;28;97063;-83
2023/12/20 16:12:03;;;;;;;35.83;17.58;;;;;;;10.50;80.40;102051.22;10334410;28;97270;-83
2023/12/20 16:17:10;;;;;;;35.03;18.23;;;;;;;10.16;81.37;102055.94;10334287;28;96936;-83
2023/12/20 16:22:15;;;;;;;51.60;23.38;;;;;;;9.78;82.56;102058.91;10335122;28;96687;-84
2023/12/20 16:27:19;;;;;;;52.53;24.15;;;;;;;9.34;84.75;102070.59;10334086;28;96532;-84
2023/12/20 16:32:24;;;;;;;49.22;24.15;;;;;;;9.09;85.45;102054.94;10334084;28;96650;-83
2023/12/20 16:37:31;;;;;;;44.42;21.38;;;;;;;8.86;86.56;102067.28;10332795;28;96641;-83
2023/12/20 16:42:36;;;;;;;45.90;21.90;;;;;;;8.64;88.53;102075.22;10333276;28;96585;-84
2023/12/20 16:47:49;;;;;;;43.30;20.17;;;;;;;8.53;88.05;102066.53;10333057;28;96826;-84
2023/12/20 16:52:58;;;;;;;45.03;21.42;;;;;;;8.40;89.09;102065.66;10332842;28;96863;-83
2023/12/20 16:58:04;;;;;;;97.88;42.50;;;;;;;8.25;89.31;102085.81;10333202;28;97363;-85
2023/12/20 17:03:12;;;;;;;87.28;42.03;;;;;;;8.14;90.36;102087.53;10332831;28;97874;-84
2023/12/20 17:08:19;;;;;;;77.32;35.63;;;;;;;8.12;91.17;102100.66;10333892;28;97006;-84
2023/12/20 17:13:23;;;;;;;56.63;26.33;;;;;;;8.00;91.85;102098.03;10332963;28;96763;-84
2023/12/20 17:18:36;;;;;;;64.80;28.05;;;;;;;7.93;91.64;102098.91;10331783;28;97478;-84
2023/12/20 17:23:40;;;;;;;61.30;26.27;;;;;;;7.82;93.08;102106.75;10332087;28;97338;-85
2023/12/20 17:28:47;;;;;;;61.13;24.05;;;;;;;7.81;93.74;102117.25;10330931;28;97244;-84
2023/12/20 17:33:54;;;;;;;61.72;24.00;;;;;;;7.73;94.53;102132.97;10332119;28;97138;-84
2023/12/20 17:39:01;;;;;;;54.55;22.13;;;;;;;7.71;95.28;102136.44;10331333;28;97328;-84
2023/12/20 17:44:08;;;;;;;55.30;22.35;;;;;;;7.69;95.60;102131.22;10331505;28;97137;-83
2023/12/20 17:49:18;;;;;;;53.15;22.33;;;;;;;7.69;95.94;102135.56;10330701;28;97376;-84
2023/12/20 17:54:29;;;;;;;56.07;22.60;;;;;;;7.75;96.02;102141.69;10330975;28;96729;-84
2023/12/20 17:59:34;;;;;;;54.30;21.05;;;;;;;7.84;95.01;102149.56;10330868;28;96768;-83
2023/12/20 18:04:40;;;;;;;59.28;22.00;;;;;;;7.85;94.08;102159.19;10331227;28;96719;-83
2023/12/20 18:09:49;;;;;;;58.75;22.42;;;;;;;7.83;94.85;102149.56;10330435;28;96558;-84
2023/12/20 18:14:54;;;;;;;60.38;22.73;;;;;;;7.80;95.57;102145.19;10329612;28;97355;-84
2023/12/20 18:20:01;;;;;;;63.10;22.70;;;;;;;7.76;94.56;102140.84;10329107;28;96594;-83
2023/12/20 18:25:10;;;;;;;57.63;23.10;;;;;;;7.68;94.39;102160.88;10330636;28;97183;-84
2023/12/20 18:30:16;;;;;;;55.42;23.45;;;;;;;7.61;95.56;102153.91;10338321;28;97531;-85
2023/12/20 18:35:30;;;;;;;54.00;20.10;;;;;;;7.59;95.86;102152.16;10371073;28;96765;-83
2023/12/20 18:40:37;;;;;;;51.25;21.08;;;;;;;7.59;96.04;102162.63;10371434;28;97252;-83
2023/12/20 18:45:43;;;;;;;56.30;22.33;;;;;;;7.63;95.04;102173.09;10341888;28;97058;-83
2023/12/20 18:50:50;;;;;;;55.75;21.38;;;;;;;7.64;95.17;102182.72;10330079;28;96675;-83
2023/12/20 18:55:56;;;;;;;51.13;22.08;;;;;;;7.60;95.06;102180.06;10330263;28;97333;-83
2023/12/20 19:01:00;;;;;;;;;;;;;;;7.48;95.71;102188.78;10329731;28;96670;-83
2023/12/20 19:06:06;;;;;;;56.25;21.10;;;;;;;7.51;96.00;102185.31;10320261;22;97452;-84
2023/12/20 19:11:17;;;;;;;59.50;23.30;;;;;;;7.54;95.66;102186.19;10283486;28;96770;-84
2023/12/20 19:16:30;;;;;;;56.80;23.08;;;;;;;7.52;96.17;102184.44;10288738;28;96971;-83
2023/12/20 19:21:37;;;;;;;53.20;22.08;;;;;;;7.47;95.73;102196.63;10295764;28;96942;-84
2023/12/20 19:26:40;;;;;;;59.40;23.90;;;;;;;7.47;97.05;102194.00;10293111;28;96704;-84
2023/12/20 19:31:53;;;;;;;62.67;23.25;;;;;;;7.47;96.31;102207.13;10273252;28;97317;-83
2023/12/20 19:36:58;;;;;;;55.35;21.90;;;;;;;7.45;96.39;102207.09;10283606;28;96676;-84
2023/12/20 19:42:01;;;;;;;60.05;23.40;;;;;;;7.48;96.30;102216.72;10294303;28;96575;-83
2023/12/20 19:47:08;;;;;;;52.20;21.80;;;;;;;7.44;96.26;102221.06;10295336;28;96952;-84
2023/12/20 19:52:13;;;;;;;55.50;20.83;;;;;;;7.41;95.86;102217.53;10294168;28;96792;-84
2023/12/20 19:57:16;;;;;;;49.42;20.27;;;;;;;7.40;95.23;102203.59;10294218;28;96710;-84
2023/12/20 20:02:20;;;;;;;50.55;19.58;;;;;;;7.45;95.40;102206.22;10293086;28;96827;-84
2023/12/20 20:07:25;;;;;;;46.15;19.33;;;;;;;7.41;95.27;102212.31;10293008;28;97438;-84
2023/12/20 20:12:32;;;;;;;51.20;18.73;;;;;;;7.46;95.66;102213.22;10293581;28;96739;-84
2023/12/20 20:17:36;;;;;;;58.35;20.77;;;;;;;7.39;95.44;102230.63;10293620;28;96759;-83
2023/12/20 20:22:41;;;;;;;52.03;21.63;;;;;;;7.35;95.55;102234.13;10293768;28;96631;-84
2023/12/20 20:27:44;;;;;;;51.53;21.50;;;;;;;7.29;95.68;102239.31;10292959;28;96824;-84
2023/12/20 20:32:48;;;;;;;51.13;19.35;;;;;;;7.33;95.27;102232.34;10292961;28;96743;-84
2023/12/20 20:37:56;;;;;;;50.33;20.33;;;;;;;7.30;95.21;102229.72;10293660;28;97307;-84
2023/12/20 20:42:59;;;;;;;46.55;19.63;;;;;;;7.30;95.70;102234.97;10292650;28;96647;-84
2023/12/20 20:48:02;;;;;;;55.20;21.02;;;;;;;7.22;95.69;102236.66;10292276;28;96727;-84
2023/12/20 20:53:27;;;;;;;50.78;20.45;;;;;;;7.19;95.66;102231.41;10291270;28;96694;-84
2023/12/20 20:58:31;;;;;;;64.15;20.10;;;;;;;7.18;96.53;102237.53;10291995;28;96775;-84
2023/12/20 21:03:35;;;;;;;52.25;18.60;;;;;;;7.24;96.05;102227.06;10292006;28;96604;-84
2023/12/20 21:08:40;;;;;;;45.40;17.30;;;;;;;7.20;95.32;102235.78;10291421;28;97116;-84
2023/12/20 21:13:47;;;;;;;47.35;18.33;;;;;;;7.10;95.61;102255.78;10291360;28;97268;-84
2023/12/20 21:18:51;;;;;;;57.20;20.88;;;;;;;7.05;96.13;102261.84;10291199;28;96550;-84
2023/12/20 21:23:56;;;;;;;46.38;19.42;;;;;;;6.93;95.55;102256.53;10291417;28;97331;-84
2023/12/20 21:29:01;;;;;;;52.35;21.58;;;;;;;6.94;95.12;102266.16;10291814;28;96715;-84
2023/12/20 21:34:06;;;;;;;48.13;20.30;;;;;;;7.01;95.55;102274.03;10290657;28;97334;-84
2023/12/20 21:39:18;;;;;;;;;;;;;;;7.05;95.20;102283.69;10291090;28;96724;-84
2023/12/20 21:44:25;;;;;;;47.65;18.27;;;;;;;7.10;95.48;102275.84;10290302;28;96660;-84
2023/12/20 21:49:30;;;;;;;44.65;18.60;;;;;;;6.98;95.41;102274.03;10290066;28;97451;-84
2023/12/20 21:54:37;;;;;;;;;;;;;;;6.89;96.14;102278.34;10291114;28;97462;-84
2023/12/20 21:59:42;;;;;;;56.30;18.05;;;;;;;6.90;96.22;102262.66;10290684;28;96879;-84
2023/12/20 22:04:47;;;;;;;41.30;16.53;;;;;;;6.88;96.40;102264.38;10289630;28;96707;-83
2023/12/20 22:09:57;;;;;;;;;;;;;;;6.71;96.74;102238.03;10290522;28;97144;-84
2023/12/20 22:15:01;;;;;;;44.70;16.17;;;;;;;6.71;97.37;102234.56;10291091;28;96969;-83
2023/12/20 22:20:06;;;;;;;39.92;16.42;;;;;;;6.55;97.62;102232.69;10290395;28;96712;-83
2023/12/20 22:25:16;;;;;;;45.42;15.95;;;;;;;6.52;97.40;102236.13;10289420;28;96724;-84
2023/12/20 22:30:21;;;;;;;49.72;18.52;;;;;;;6.52;96.98;102253.59;10289791;28;96940;-84
2023/12/20 22:35:25;;;;;;;55.17;23.08;;;;;;;6.61;97.28;102285.91;10288185;28;96967;-84
2023/12/20 22:40:32;;;;;;;48.00;19.20;;;;;;;6.59;97.17;102305.09;10289005;28;97021;-84
2023/12/20 22:45:40;;;;;;;39.92;17.08;;;;;;;6.70;96.29;102312.16;10288587;28;96751;-84
2023/12/20 22:50:45;;;;;;;39.88;16.90;;;;;;;6.80;96.46;102305.28;10288600;28;97483;-84
2023/12/20 22:55:56;;;;;;;39.70;16.52;;;;;;;6.86;96.29;102304.47;10298769;28;97093;-84
2023/12/20 23:01:02;;;;;;;40.58;17.02;;;;;;;6.86;95.67;102307.06;10297672;28;96691;-84
2023/12/20 23:06:10;;;;;;;40.25;17.25;;;;;;;6.93;95.45;102316.72;10287660;28;97320;-83
2023/12/20 23:11:17;;;;;;;38.28;15.85;;;;;;;6.97;95.34;102318.50;10288697;28;97275;-84
2023/12/20 23:16:21;;;;;;;41.33;16.85;;;;;;;6.86;95.06;102301.84;10288047;28;96711;-83
2023/12/20 23:21:27;;;;;;;41.77;16.17;;;;;;;6.76;94.62;102290.41;10288216;28;96833;-84
2023/12/20 23:26:36;;;;;;;38.13;14.38;;;;;;;6.61;95.74;102292.91;10286816;28;97270;-85
2023/12/20 23:31:42;;;;;;;30.65;12.68;;;;;;;6.44;96.42;102291.84;10287528;28;96738;-83
2023/12/20 23:36:47;;;;;;;42.78;17.05;;;;;;;6.48;95.86;102297.13;10287390;28;96915;-83
2023/12/20 23:41:56;;;;;;;35.92;14.77;;;;;;;6.54;96.10;102283.25;10287805;28;97146;-83
2023/12/20 23:47:02;;;;;;;35.03;13.05;;;;;;;6.48;96.26;102284.06;10287407;28;97013;-84
2023/12/20 23:52:07;;;;;;;39.17;16.00;;;;;;;6.44;96.22;102282.25;10287063;28;96760;-84
2023/12/20 23:57:14;;;;;;;;;;;;;;;6.43;96.68;102283.16;10288101;28;96616;-84
